»·PEaware :: N707CP KHQM-KCLM

N707CP :: KHQM-KCLM

FLIGHT INFORMATION

Flight Status: Arrived
Operator: Privately registered:
United States
More flights under this callsign
Pilot: Chase W. (8260)
Aircraft: BEECH AIRCRAFT BONANZA
(BE36)
More flights by this aircraft type
Origin: KHQM Bowerman
United States
Destination: KCLM Fairchild Intl
United States
More flights between these airports :: More routes between these airports
Route: VFR
File this flight plan on PilotEdge
Remarks:
Altitude:
(Current/Filed)
3,500ft
Speed:
(Current/Filed)
160kts
Departed: 20-Jan-17 05:53 PM
Arrived: 20-Jan-17 06:27 PM
Distance/Time
Traveled:
93nm/0:34
Distance/Time
To Go:
Arrived

Flight Plot

Page will automatically refresh every two minutes.


Map Options




Map Legend


Flown Route
Filed Route
Departure Airport
Arrival Airport
Navaid (VOR, NDB)
Fix

Horizontal Profiles

Position Reports

Time Latitude Longitude Heading Altitude Ground
Speed
20-Jan-17 17:43 46.973843 -123.928592 141 22ft 0kts
20-Jan-17 17:44 46.973843 -123.928592 141 22ft 0kts
20-Jan-17 17:45 46.973843 -123.928592 141 22ft 0kts
20-Jan-17 17:46 46.973843 -123.928592 141 22ft 0kts
20-Jan-17 17:47 46.973843 -123.928592 141 22ft 0kts
20-Jan-17 17:48 46.973843 -123.928592 141 22ft 0kts
20-Jan-17 17:49 46.973843 -123.928592 141 22ft 0kts
20-Jan-17 17:50 46.973843 -123.928592 141 22ft 0kts
20-Jan-17 17:51 46.973832 -123.928579 141 22ft 1kts
20-Jan-17 17:52 46.973127 -123.927310 125 21ft 6kts
20-Jan-17 17:53 46.970454 -123.941635 258 106ft 104kts
20-Jan-17 17:54 46.986870 -123.970171 13 1350ft 120kts
20-Jan-17 17:55 47.018271 -123.954873 15 2667ft 117kts
20-Jan-17 17:56 47.047436 -123.933215 49 3511ft 145kts
20-Jan-17 17:57 47.075404 -123.880370 53 3502ft 173kts
20-Jan-17 17:58 47.103822 -123.824632 52 3499ft 172kts
20-Jan-17 17:59 47.132440 -123.768790 52 3499ft 171kts
20-Jan-17 18:00 47.161027 -123.712976 52 3499ft 171kts
20-Jan-17 18:01 47.189627 -123.657111 52 3499ft 171kts
20-Jan-17 18:02 47.229582 -123.647730 314 3506ft 170kts
20-Jan-17 18:03 47.262085 -123.698892 312 3499ft 171kts
20-Jan-17 18:04 47.292951 -123.747962 312 4068ft 152kts
20-Jan-17 18:05 47.327170 -123.781315 335 4890ft 147kts
20-Jan-17 18:06 47.367962 -123.781876 14 5498ft 156kts
20-Jan-17 18:07 47.412928 -123.764432 14 5501ft 173kts
20-Jan-17 18:08 47.459744 -123.746315 14 5500ft 175kts
20-Jan-17 18:09 47.505624 -123.728611 14 5775ft 166kts
20-Jan-17 18:10 47.549813 -123.711510 14 6109ft 164kts
20-Jan-17 18:11 47.593862 -123.694426 14 6430ft 164kts
20-Jan-17 18:12 47.637198 -123.677617 14 6852ft 160kts
20-Jan-17 18:13 47.680317 -123.660854 14 7251ft 160kts
20-Jan-17 18:14 47.723660 -123.643963 14 7501ft 166kts
20-Jan-17 18:15 47.769501 -123.626044 14 7500ft 172kts
20-Jan-17 18:16 47.815961 -123.607910 14 7500ft 173kts
20-Jan-17 18:17 47.862303 -123.589802 14 7499ft 173kts
20-Jan-17 18:18 47.911320 -123.579354 353 6956ft 189kts
20-Jan-17 18:19 47.963468 -123.588844 352 5228ft 189kts
20-Jan-17 18:20 48.014185 -123.593488 358 3563ft 175kts
20-Jan-17 18:21 48.056866 -123.583064 18 2996ft 137kts
20-Jan-17 18:22 48.087409 -123.553151 42 2191ft 127kts
20-Jan-17 18:23 48.106153 -123.519376 33 1312ft 92kts
20-Jan-17 18:24 48.127720 -123.500456 29 1245ft 96kts
20-Jan-17 18:25 48.127514 -123.467631 167 954ft 93kts
20-Jan-17 18:26 48.117635 -123.492085 284 325ft 80kts
20-Jan-17 18:27 48.119580 -123.506949 196 295ft 8kts
20-Jan-17 18:28 48.118718 -123.504398 113 295ft 8kts
20-Jan-17 18:29 48.118139 -123.501413 104 294ft 10kts
20-Jan-17 18:30 48.117290 -123.494836 102 295ft 16kts
20-Jan-17 18:31 48.117881 -123.493406 284 295ft 46kts
20-Jan-17 18:32 48.133111 -123.496513 58 1237ft 109kts
20-Jan-17 18:33 48.156197 -123.444996 55 1305ft 171kts
20-Jan-17 18:34 48.181166 -123.390110 55 2239ft 147kts
20-Jan-17 18:35 48.203521 -123.341062 56 3231ft 144kts
20-Jan-17 18:36 48.227872 -123.287304 56 3504ft 170kts
20-Jan-17 18:37 48.255097 -123.227336 55 3500ft 176kts
20-Jan-17 18:38 48.282752 -123.166534 55 3499ft 176kts
20-Jan-17 18:39 48.310467 -123.105587 55 3499ft 176kts
20-Jan-17 18:40 48.341859 -123.051395 12 3501ft 176kts
20-Jan-17 18:41 48.391292 -123.037630 10 2961ft 172kts

Navigation Log

Ident Type
Flight plan parsing failed, navigation log unavailable